createdAt,value
2019-04-28T00:02:23.278Z,8.86
2019-04-28T00:04:57.682Z,8.87
2019-04-28T00:07:32.150Z,8.81
2019-04-28T00:10:06.595Z,8.76
2019-04-28T00:12:41.153Z,8.74
2019-04-28T00:15:17.779Z,8.70
2019-04-28T00:17:51.585Z,8.68
2019-04-28T00:20:44.549Z,8.64
2019-04-28T00:23:31.679Z,8.60
2019-04-28T00:26:17.181Z,8.54
2019-04-28T00:28:51.979Z,8.52
2019-04-28T00:31:25.242Z,8.52
2019-04-28T00:33:58.023Z,8.55
2019-04-28T00:36:31.255Z,8.52
2019-04-28T00:39:04.951Z,8.52
2019-04-28T00:41:38.797Z,8.50
2019-04-28T00:44:12.052Z,8.48
2019-04-28T00:46:44.727Z,8.48
2019-04-28T00:49:45.535Z,8.47
2019-04-28T00:52:22.204Z,8.45
2019-04-28T00:54:55.326Z,8.43
2019-04-28T00:57:30.830Z,8.45
2019-04-28T01:00:07.411Z,8.44
2019-04-28T01:02:42.131Z,8.43
2019-04-28T01:05:17.009Z,8.42
2019-04-28T01:07:51.111Z,8.45
2019-04-28T01:10:26.387Z,8.44
2019-04-28T01:12:59.182Z,8.44
2019-04-28T01:15:49.536Z,8.46
2019-04-28T01:18:32.575Z,8.46
2019-04-28T01:21:05.284Z,8.43
2019-04-28T01:23:37.936Z,8.40
2019-04-28T01:26:12.303Z,8.39
2019-04-28T01:28:45.959Z,8.40
2019-04-28T01:31:26.337Z,8.36
2019-04-28T01:34:27.829Z,8.34
2019-04-28T01:37:30.423Z,8.33
2019-04-28T01:40:09.482Z,8.33
2019-04-28T01:42:42.177Z,8.30
2019-04-28T01:45:16.609Z,8.28
2019-04-28T01:47:50.389Z,8.29
2019-04-28T01:50:23.248Z,8.32
2019-04-28T01:52:57.166Z,8.34
2019-04-28T01:55:30.035Z,8.34
2019-04-28T01:58:02.821Z,8.35
2019-04-28T02:00:36.396Z,8.37
2019-04-28T02:03:10.386Z,8.36
2019-04-28T02:05:43.012Z,8.36
2019-04-28T02:08:20.386Z,8.39
2019-04-28T02:10:55.950Z,8.40
2019-04-28T02:13:29.814Z,8.38
2019-04-28T02:16:03.039Z,8.35
2019-04-28T02:18:35.804Z,8.35
2019-04-28T02:21:29.539Z,8.33
2019-04-28T02:24:09.545Z,8.32
2019-04-28T02:26:42.339Z,8.31
2019-04-28T02:29:15.273Z,8.30
2019-04-28T02:31:47.804Z,8.28
2019-04-28T02:34:21.129Z,8.26
2019-04-28T02:36:54.305Z,8.25
2019-04-28T02:39:31.224Z,8.25
2019-04-28T02:42:04.672Z,8.23
2019-04-28T02:44:40.254Z,8.21
2019-04-28T02:47:13.335Z,8.17
2019-04-28T02:49:56.280Z,8.14
2019-04-28T02:52:35.644Z,8.10
2019-04-28T02:55:10.650Z,8.12
2019-04-28T02:57:44.384Z,8.12
2019-04-28T03:00:18.036Z,8.10
2019-04-28T03:02:51.498Z,8.07
2019-04-28T03:05:24.608Z,8.03
2019-04-28T03:07:57.251Z,8.01
2019-04-28T03:10:31.052Z,7.99
2019-04-28T03:13:04.377Z,7.96
2019-04-28T03:15:37.163Z,7.96
2019-04-28T03:18:11.459Z,7.91
2019-04-28T03:20:44.566Z,7.93
2019-04-28T03:23:20.457Z,7.97
2019-04-28T03:26:11.856Z,8.00
2019-04-28T03:28:52.051Z,7.99
2019-04-28T03:33:56.243Z,8.06
2019-04-28T03:36:32.876Z,8.09
2019-04-28T03:39:10.846Z,8.12
2019-04-28T03:41:44.055Z,8.12
2019-04-28T03:44:20.624Z,8.11
2019-04-28T03:46:55.783Z,8.09
2019-04-28T03:49:32.022Z,8.09
2019-04-28T03:52:06.032Z,8.07
2019-04-28T03:54:41.055Z,8.09
2019-04-28T03:57:14.251Z,8.11
2019-04-28T03:59:46.882Z,8.14
2019-04-28T04:02:21.170Z,8.16
2019-04-28T04:04:56.410Z,8.13
2019-04-28T04:07:31.140Z,8.12
2019-04-28T04:10:13.652Z,8.10
2019-04-28T04:12:55.290Z,8.09
2019-04-28T04:15:54.025Z,8.09
2019-04-28T04:18:36.486Z,8.14
2019-04-28T04:21:11.242Z,8.14
2019-04-28T04:23:43.883Z,8.16
2019-04-28T04:26:16.692Z,8.17
2019-04-28T04:28:51.527Z,8.18
2019-04-28T04:31:24.803Z,8.18
2019-04-28T04:34:02.631Z,8.16
2019-04-28T04:36:35.928Z,8.15
2019-04-28T04:39:10.845Z,8.16
2019-04-28T04:41:44.284Z,8.16
2019-04-28T04:44:16.830Z,8.17
2019-04-28T04:46:50.984Z,8.17
2019-04-28T04:49:23.619Z,8.16
2019-04-28T04:51:56.256Z,8.19
2019-04-28T04:54:32.038Z,8.19
2019-04-28T04:57:05.289Z,8.19
2019-04-28T04:59:39.992Z,8.21
2019-04-28T05:02:29.427Z,8.21
2019-04-28T05:05:12.552Z,8.21
2019-04-28T05:07:45.249Z,8.22
2019-04-28T05:10:18.006Z,8.22
2019-04-28T05:12:51.816Z,8.20
2019-04-28T05:15:24.894Z,8.19
2019-04-28T05:17:57.759Z,8.20
2019-04-28T05:20:30.802Z,8.19
2019-04-28T05:23:19.638Z,8.20
2019-04-28T05:25:52.083Z,8.20
2019-04-28T05:28:24.747Z,8.20
2019-04-28T05:30:57.686Z,8.21
2019-04-28T05:33:33.949Z,8.21
2019-04-28T05:36:06.895Z,8.22
2019-04-28T05:38:40.177Z,8.21
2019-04-28T05:41:14.637Z,8.19
2019-04-28T05:43:47.354Z,8.16
2019-04-28T05:46:21.378Z,8.11
2019-04-28T05:49:10.257Z,8.06
2019-04-28T05:51:47.043Z,8.05
2019-04-28T05:54:40.066Z,8.05
2019-04-28T05:57:33.689Z,8.04
2019-04-28T06:00:29.877Z,8.05
2019-04-28T06:03:03.727Z,8.03
2019-04-28T06:05:36.873Z,8.02
2019-04-28T06:08:21.405Z,8.02
2019-04-28T06:10:53.988Z,8.03
2019-04-28T06:13:30.372Z,8.03
2019-04-28T06:16:03.031Z,8.03
2019-04-28T06:18:35.885Z,8.06
2019-04-28T06:21:09.842Z,8.08
2019-04-28T06:23:42.328Z,8.11
2019-04-28T06:26:15.782Z,8.12
2019-04-28T06:28:52.227Z,8.15
2019-04-28T06:31:24.966Z,8.20
2019-04-28T06:33:57.775Z,8.25
2019-04-28T06:36:30.815Z,8.34
2019-04-28T06:39:06.463Z,8.47
2019-04-28T06:41:39.463Z,8.59
2019-04-28T06:44:13.411Z,8.75
2019-04-28T06:46:45.917Z,8.85
2019-04-28T06:49:19.873Z,9.00
2019-04-28T06:51:52.698Z,9.11
2019-04-28T06:54:28.258Z,9.17
2019-04-28T06:57:02.398Z,9.20
2019-04-28T06:59:36.202Z,9.29
2019-04-28T07:02:10.648Z,9.34
2019-04-28T07:04:44.056Z,9.37
2019-04-28T07:07:18.516Z,9.46
2019-04-28T07:09:51.777Z,9.54
2019-04-28T07:12:24.448Z,9.58
2019-04-28T07:14:57.076Z,9.55
2019-04-28T07:17:30.719Z,9.52
2019-04-28T07:20:31.375Z,9.50
2019-04-28T07:23:04.119Z,9.50
2019-04-28T07:25:36.600Z,9.59
2019-04-28T07:28:10.382Z,9.72
2019-04-28T07:30:49.382Z,9.77
2019-04-28T07:33:22.485Z,9.80
2019-04-28T07:35:56.316Z,9.79
2019-04-28T07:38:29.182Z,9.79
2019-04-28T07:41:02.667Z,9.72
2019-04-28T07:43:36.614Z,9.67
2019-04-28T07:46:10.428Z,9.70
2019-04-28T07:48:42.951Z,9.97
2019-04-28T07:51:17.564Z,10.34
2019-04-28T07:54:05.777Z,10.69
2019-04-28T07:56:38.492Z,10.70
2019-04-28T07:59:11.504Z,10.43
2019-04-28T08:01:46.112Z,10.23
2019-04-28T08:04:21.046Z,10.74
2019-04-28T08:06:55.868Z,11.67
2019-04-28T08:09:28.486Z,12.68
2019-04-28T08:12:02.038Z,13.25
2019-04-28T08:14:36.056Z,13.20
2019-04-28T08:17:08.946Z,13.48
2019-04-28T08:19:42.166Z,13.15
2019-04-28T08:22:14.951Z,12.41
2019-04-28T08:24:47.715Z,11.85
2019-04-28T08:27:20.389Z,11.60
2019-04-28T08:29:58.627Z,11.46
2019-04-28T08:32:51.909Z,11.24
2019-04-28T08:35:36.350Z,11.03
2019-04-28T08:38:09.359Z,10.95
2019-04-28T08:40:42.482Z,10.93
2019-04-28T08:43:16.293Z,10.81
2019-04-28T08:45:50.086Z,10.58
2019-04-28T08:48:23.711Z,10.39
2019-04-28T08:50:56.306Z,10.34
2019-04-28T08:53:29.041Z,10.51
2019-04-28T08:56:01.934Z,11.15
2019-04-28T08:58:35.516Z,11.97
2019-04-28T09:01:08.654Z,12.81
2019-04-28T09:03:41.890Z,12.90
2019-04-28T09:06:14.658Z,12.47
2019-04-28T09:08:48.045Z,12.01
2019-04-28T09:11:20.563Z,11.75
2019-04-28T09:13:54.521Z,11.56
2019-04-28T09:16:27.592Z,11.35
2019-04-28T09:19:00.064Z,11.17
2019-04-28T09:21:37.587Z,11.25
2019-04-28T09:24:10.985Z,11.43
2019-04-28T09:26:43.664Z,11.57
2019-04-28T09:29:16.556Z,11.43
2019-04-28T09:31:49.723Z,11.29
2019-04-28T09:34:28.611Z,11.09
2019-04-28T09:37:03.952Z,11.16
2019-04-28T09:39:46.506Z,11.32
2019-04-28T09:42:25.583Z,11.35
2019-04-28T09:45:01.141Z,11.35
2019-04-28T09:47:34.968Z,11.34
2019-04-28T09:50:10.150Z,11.23
2019-04-28T09:52:50.737Z,11.10
2019-04-28T09:55:24.332Z,11.03
2019-04-28T09:57:56.971Z,10.80
2019-04-28T10:00:30.139Z,10.60
2019-04-28T10:03:02.768Z,10.43
2019-04-28T10:05:35.445Z,10.23
2019-04-28T10:08:08.488Z,10.07
2019-04-28T10:10:41.059Z,9.92
2019-04-28T10:13:16.313Z,9.79
2019-04-28T10:15:53.419Z,9.64
2019-04-28T10:18:26.235Z,9.57
2019-04-28T10:20:59.381Z,9.56
2019-04-28T10:23:33.324Z,9.62
2019-04-28T10:26:08.418Z,9.71
2019-04-28T10:28:41.154Z,9.90
2019-04-28T10:31:15.443Z,10.12
2019-04-28T10:33:55.286Z,10.30
2019-04-28T10:36:30.860Z,10.45
2019-04-28T10:39:13.435Z,10.54
2019-04-28T10:41:47.758Z,10.61
2019-04-28T10:44:23.997Z,10.58
2019-04-28T10:47:00.808Z,10.64
2019-04-28T10:49:40.587Z,10.73
2019-04-28T10:52:13.283Z,10.83
2019-04-28T10:54:47.564Z,10.68
2019-04-28T10:57:20.322Z,10.68
2019-04-28T10:59:55.200Z,10.92
2019-04-28T11:02:27.880Z,11.20
2019-04-28T11:05:11.373Z,11.50
2019-04-28T11:07:46.297Z,12.05
2019-04-28T11:10:20.435Z,12.33
2019-04-28T11:12:55.031Z,12.66
2019-04-28T11:15:36.531Z,12.86
2019-04-28T11:18:11.028Z,13.12
2019-04-28T11:20:45.618Z,13.62
2019-04-28T11:23:20.092Z,13.92
2019-04-28T11:25:55.010Z,14.24
2019-04-28T11:28:31.909Z,14.58
2019-04-28T11:31:04.622Z,14.85
2019-04-28T11:33:52.019Z,14.96
2019-04-28T11:36:25.565Z,14.89
2019-04-28T11:38:58.620Z,14.87
2019-04-28T11:41:34.341Z,14.75
2019-04-28T11:44:10.457Z,14.25
2019-04-28T11:46:43.305Z,13.76
2019-04-28T11:49:17.801Z,13.31
2019-04-28T11:51:52.494Z,13.02
2019-04-28T11:54:37.509Z,12.95
2019-04-28T11:57:20.835Z,13.13
2019-04-28T12:00:13.564Z,13.24
2019-04-28T12:02:56.358Z,13.52
2019-04-28T12:05:39.192Z,14.02
2019-04-28T12:08:12.913Z,14.43
2019-04-28T12:11:04.533Z,14.92
2019-04-28T12:13:52.975Z,15.71
2019-04-28T12:16:46.904Z,15.70
2019-04-28T12:19:49.737Z,15.14
2019-04-28T12:22:26.891Z,15.29
2019-04-28T12:25:01.247Z,15.17
2019-04-28T12:27:37.319Z,15.27
2019-04-28T12:30:20.868Z,15.43
2019-04-28T12:32:55.240Z,15.89
2019-04-28T12:35:29.539Z,15.76
2019-04-28T12:38:06.725Z,15.74
2019-04-28T12:40:42.572Z,15.76
2019-04-28T12:43:27.936Z,15.50
2019-04-28T12:46:02.119Z,15.12
2019-04-28T12:48:47.922Z,14.99
2019-04-28T12:51:30.870Z,14.81
2019-04-28T12:54:33.240Z,14.54
2019-04-28T12:57:09.755Z,14.42
2019-04-28T12:59:53.347Z,14.18
2019-04-28T13:03:13.069Z,13.94
2019-04-28T13:06:01.462Z,13.82
2019-04-28T13:08:39.262Z,13.45
2019-04-28T13:11:21.367Z,13.18
2019-04-28T13:14:19.756Z,12.99
2019-04-28T13:17:00.348Z,12.88
2019-04-28T13:19:37.986Z,12.89
2019-04-28T13:22:17.144Z,12.86
2019-04-28T13:24:56.083Z,12.67
2019-04-28T13:27:31.680Z,12.46
2019-04-28T13:30:17.937Z,12.26
2019-04-28T13:32:51.852Z,11.96
2019-04-28T13:35:29.051Z,11.69
2019-04-28T13:38:01.946Z,11.47
2019-04-28T13:40:37.282Z,11.23
2019-04-28T13:43:16.892Z,10.91
2019-04-28T13:45:51.351Z,10.62
2019-04-28T13:48:28.641Z,10.40
2019-04-28T13:51:03.590Z,10.25
2019-04-28T13:53:39.501Z,10.16
2019-04-28T13:56:12.892Z,10.13
2019-04-28T13:58:56.409Z,10.06
2019-04-28T14:01:39.474Z,10.03
2019-04-28T14:04:28.806Z,10.04
2019-04-28T14:07:03.372Z,10.06
2019-04-28T14:09:39.301Z,10.09
2019-04-28T14:12:18.795Z,10.13
2019-04-28T14:14:56.324Z,10.12
2019-04-28T14:17:30.527Z,10.08
2019-04-28T14:20:05.935Z,9.96
2019-04-28T14:22:45.176Z,9.74
2019-04-28T14:25:20.909Z,9.53
2019-04-28T14:27:54.870Z,9.46
2019-04-28T14:30:27.984Z,9.40
2019-04-28T14:33:02.673Z,9.32
2019-04-28T14:35:35.815Z,9.24
2019-04-28T14:38:08.454Z,9.24
2019-04-28T14:40:41.073Z,9.29
2019-04-28T14:43:15.494Z,9.41
2019-04-28T14:45:48.427Z,9.56
2019-04-28T14:48:21.184Z,9.72
2019-04-28T14:50:54.250Z,9.90
2019-04-28T14:53:26.947Z,10.06
2019-04-28T14:56:02.311Z,10.18
2019-04-28T14:58:35.180Z,10.37
2019-04-28T15:01:27.992Z,10.51
2019-04-28T15:04:10.237Z,10.63
2019-04-28T15:06:55.703Z,10.83
2019-04-28T15:09:50.822Z,11.10
2019-04-28T15:12:34.544Z,11.33
2019-04-28T15:15:09.750Z,11.39
2019-04-28T15:17:44.850Z,11.52
2019-04-28T15:20:20.831Z,11.78
2019-04-28T15:22:57.884Z,12.05
2019-04-28T15:25:31.000Z,12.45
2019-04-28T15:28:04.607Z,13.01
2019-04-28T15:30:47.536Z,13.61
2019-04-28T15:33:24.354Z,14.09
2019-04-28T15:36:09.894Z,14.48
2019-04-28T15:38:47.993Z,14.94
2019-04-28T15:41:23.140Z,15.42
2019-04-28T15:43:55.877Z,15.58
2019-04-28T15:46:30.753Z,16.00
2019-04-28T15:49:03.684Z,15.94
2019-04-28T15:51:37.776Z,15.95
2019-04-28T15:54:16.855Z,16.26
2019-04-28T15:56:54.381Z,16.37
2019-04-28T15:59:30.727Z,16.47
2019-04-28T16:02:10.090Z,16.99
2019-04-28T16:04:43.596Z,17.23
2019-04-28T16:07:25.184Z,17.28
2019-04-28T16:10:01.642Z,17.13
2019-04-28T16:12:38.387Z,17.43
2019-04-28T16:15:16.094Z,17.30
2019-04-28T16:17:51.571Z,17.05
2019-04-28T16:20:26.189Z,17.03
2019-04-28T16:22:59.848Z,17.41
2019-04-28T16:25:38.284Z,17.34
2019-04-28T16:28:11.162Z,17.38
2019-04-28T16:30:45.556Z,17.59
2019-04-28T16:33:19.069Z,17.51
2019-04-28T16:35:51.826Z,17.49
2019-04-28T16:38:25.014Z,17.21
2019-04-28T16:41:06.043Z,16.68
2019-04-28T16:43:43.860Z,16.32
2019-04-28T16:46:21.689Z,16.10
2019-04-28T16:48:57.122Z,16.23
2019-04-28T16:51:30.741Z,16.33
2019-04-28T16:54:05.333Z,16.49
2019-04-28T16:56:49.708Z,16.36
2019-04-28T16:59:29.505Z,16.00
2019-04-28T17:02:10.413Z,15.76
2019-04-28T17:04:46.648Z,15.78
2019-04-28T17:07:22.050Z,15.89
2019-04-28T17:09:55.001Z,15.86
2019-04-28T17:12:28.465Z,15.79
2019-04-28T17:15:04.841Z,15.83
2019-04-28T17:17:38.603Z,15.99
2019-04-28T17:20:13.102Z,15.80
2019-04-28T17:22:48.932Z,15.49
2019-04-28T17:25:24.139Z,15.38
2019-04-28T17:27:59.104Z,15.43
2019-04-28T17:30:32.420Z,15.37
2019-04-28T17:33:06.030Z,15.27
2019-04-28T17:35:38.775Z,15.21
2019-04-28T17:38:14.095Z,15.10
2019-04-28T17:40:51.090Z,14.99
2019-04-28T17:43:28.486Z,15.00
2019-04-28T17:46:05.141Z,15.00
2019-04-28T17:48:47.190Z,14.99
2019-04-28T17:51:20.682Z,14.85
2019-04-28T17:53:54.696Z,14.72
2019-04-28T17:56:33.043Z,14.55
2019-04-28T17:59:06.835Z,14.52
2019-04-28T18:02:05.628Z,14.34
2019-04-28T18:04:59.577Z,14.19
2019-04-28T18:07:46.523Z,13.95
2019-04-28T18:10:23.590Z,13.74
2019-04-28T18:13:00.583Z,13.51
2019-04-28T18:15:54.123Z,13.31
2019-04-28T18:18:33.377Z,13.11
2019-04-28T18:21:08.653Z,12.98
2019-04-28T18:23:45.103Z,12.89
2019-04-28T18:26:22.030Z,12.80
2019-04-28T18:28:57.436Z,12.76
2019-04-28T18:31:51.573Z,12.74
2019-04-28T18:34:53.515Z,12.69
2019-04-28T18:37:48.257Z,12.54
2019-04-28T18:40:35.806Z,12.29
2019-04-28T18:43:18.302Z,12.03
2019-04-28T18:45:52.699Z,11.76
2019-04-28T18:48:27.534Z,11.48
2019-04-28T18:51:00.971Z,11.25
2019-04-28T18:53:39.586Z,11.00
2019-04-28T18:56:16.080Z,10.76
2019-04-28T18:58:49.218Z,10.49
2019-04-28T19:01:41.793Z,10.25
2019-04-28T19:04:16.522Z,10.07
2019-04-28T19:07:04.496Z,9.84
2019-04-28T19:09:50.406Z,9.61
2019-04-28T19:12:33.837Z,9.41
2019-04-28T19:15:31.610Z,9.29
2019-04-28T19:18:10.651Z,9.17
2019-04-28T19:20:43.871Z,9.05
2019-04-28T19:23:16.674Z,8.84
2019-04-28T19:25:50.884Z,8.61
2019-04-28T19:28:23.937Z,8.43
2019-04-28T19:30:57.305Z,8.30
2019-04-28T19:33:32.254Z,8.16
2019-04-28T19:36:06.196Z,8.12
2019-04-28T19:38:40.281Z,8.07
2019-04-28T19:41:13.718Z,7.96
2019-04-28T19:43:47.353Z,7.86
2019-04-28T19:46:20.144Z,7.71
2019-04-28T19:48:53.146Z,7.51
2019-04-28T19:51:34.221Z,7.38
2019-04-28T19:54:08.469Z,7.25
2019-04-28T19:56:48.982Z,7.18
2019-04-28T19:59:26.697Z,7.09
2019-04-28T20:02:03.748Z,6.94
2019-04-28T20:04:36.375Z,6.80
2019-04-28T20:07:09.625Z,6.63
2019-04-28T20:09:43.403Z,6.51
2019-04-28T20:12:17.043Z,6.42
2019-04-28T20:14:54.846Z,6.33
2019-04-28T20:17:29.787Z,6.22
2019-04-28T20:20:02.271Z,6.13
2019-04-28T20:22:35.299Z,6.20
2019-04-28T20:25:09.997Z,6.20
2019-04-28T20:27:42.717Z,6.18
2019-04-28T20:30:17.281Z,6.08
2019-04-28T20:33:06.173Z,6.04
2019-04-28T20:35:48.252Z,5.95
2019-04-28T20:38:28.309Z,5.88
2019-04-28T20:41:08.533Z,5.81
2019-04-28T20:43:43.392Z,5.77
2019-04-28T20:46:19.825Z,5.76
2019-04-28T20:49:00.330Z,5.79
2019-04-28T20:51:35.848Z,5.82
2019-04-28T20:54:11.846Z,5.81
2019-04-28T20:56:48.733Z,5.89
2019-04-28T20:59:21.205Z,5.87
2019-04-28T21:01:55.414Z,5.78
2019-04-28T21:04:29.415Z,5.62
2019-04-28T21:07:03.242Z,5.44
2019-04-28T21:09:35.842Z,5.30
2019-04-28T21:12:09.084Z,5.22
2019-04-28T21:14:44.091Z,5.16
2019-04-28T21:17:16.840Z,5.15
2019-04-28T21:19:51.468Z,5.13
2019-04-28T21:22:24.673Z,5.04
2019-04-28T21:24:58.209Z,4.97
2019-04-28T21:27:31.246Z,4.90
2019-04-28T21:30:07.587Z,4.92
2019-04-28T21:32:40.256Z,4.90
2019-04-28T21:35:14.567Z,5.04
2019-04-28T21:37:47.891Z,5.05
2019-04-28T21:40:21.267Z,5.05
2019-04-28T21:43:18.833Z,5.01
2019-04-28T21:46:18.193Z,4.97
2019-04-28T21:48:53.375Z,4.95
2019-04-28T21:51:25.985Z,4.86
2019-04-28T21:53:59.143Z,4.74
2019-04-28T21:56:33.087Z,4.67
2019-04-28T21:59:05.819Z,4.68
2019-04-28T22:01:38.937Z,4.63
2019-04-28T22:04:11.586Z,4.72
2019-04-28T22:06:45.104Z,4.72
2019-04-28T22:09:22.116Z,4.68
2019-04-28T22:11:55.590Z,4.62
2019-04-28T22:14:29.657Z,4.47
2019-04-28T22:17:03.651Z,4.26
2019-04-28T22:19:36.156Z,4.05
2019-04-28T22:22:08.787Z,3.90
2019-04-28T22:24:50.687Z,3.98
2019-04-28T22:27:29.622Z,3.99
2019-04-28T22:30:05.017Z,4.13
2019-04-28T22:32:38.968Z,4.14
2019-04-28T22:35:12.938Z,4.05
2019-04-28T22:37:45.546Z,3.95
2019-04-28T22:40:18.294Z,3.87
2019-04-28T22:42:50.987Z,3.81
2019-04-28T22:45:24.266Z,3.91
2019-04-28T22:47:56.849Z,4.05
2019-04-28T22:50:41.341Z,4.18
2019-04-28T22:53:19.008Z,4.22
2019-04-28T22:56:06.067Z,4.31
2019-04-28T22:58:48.322Z,4.28
2019-04-28T23:01:40.645Z,4.07
2019-04-28T23:04:19.802Z,3.80
2019-04-28T23:06:53.754Z,3.63
2019-04-28T23:09:26.823Z,3.53
2019-04-28T23:12:00.352Z,3.46
2019-04-28T23:14:32.929Z,3.43
2019-04-28T23:17:12.030Z,3.53
2019-04-28T23:19:45.127Z,3.55
2019-04-28T23:22:23.458Z,3.57
2019-04-28T23:24:56.693Z,3.45
2019-04-28T23:27:29.283Z,3.32
2019-04-28T23:30:04.340Z,3.24
2019-04-28T23:32:36.919Z,3.31
2019-04-28T23:35:10.786Z,3.60
2019-04-28T23:37:43.325Z,3.60
2019-04-28T23:40:15.806Z,3.57
2019-04-28T23:42:55.996Z,3.53
2019-04-28T23:45:28.524Z,3.63
2019-04-28T23:48:01.503Z,3.66
2019-04-28T23:50:46.746Z,3.77
2019-04-28T23:53:57.111Z,3.72
2019-04-28T23:56:30.082Z,3.57
2019-04-28T23:59:03.138Z,3.48
